EVA756 LEZL-LEXG

Flight info

Callsign EVA756
Flight time N/A
Altitude 3500
Route VFR
Aircraft C172/L-SFG/C

Departure

Time 2026-03-25 17:15
Airport Seville Airport (LEZL)

Arrival

Time N/A
Airport LEXG
Time Latitude Longitude Altitude Speed Heading
2026-03-25 17:08 37.42052 -5.90568 93 ft 0 kts 89°
2026-03-25 17:09 37.42053 -5.90568 93 ft 0 kts 89°
2026-03-25 17:10 37.42052 -5.90568 93 ft 0 kts 89°
2026-03-25 17:10 37.42053 -5.90568 93 ft 0 kts 89°
2026-03-25 17:10 37.42052 -5.90566 93 ft 2 kts 92°
2026-03-25 17:10 37.42004 -5.90530 94 ft 16 kts 192°
2026-03-25 17:11 37.41977 -5.90709 92 ft 31 kts 272°
2026-03-25 17:11 37.41940 -5.91017 84 ft 35 kts 239°
2026-03-25 17:11 37.41881 -5.91142 87 ft 0 kts 250°
2026-03-25 17:12 37.41880 -5.91145 86 ft 2 kts 241°
2026-03-25 17:13 37.41815 -5.91193 84 ft 18 kts 166°
2026-03-25 17:13 37.41789 -5.91137 84 ft 0 kts 93°
2026-03-25 17:14 37.41789 -5.91052 86 ft 32 kts 93°
2026-03-25 17:14 37.41789 -5.90562 97 ft 76 kts 89°
2026-03-25 17:15 37.41792 -5.89844 253 ft 88 kts 90°
2026-03-25 17:15 37.41796 -5.89046 440 ft 93 kts 89°
2026-03-25 17:15 37.41806 -5.88225 630 ft 96 kts 90°
2026-03-25 17:15 37.41812 -5.87385 854 ft 93 kts 89°
2026-03-25 17:16 37.41830 -5.86555 1000 ft 103 kts 94°
2026-03-25 17:16 37.41396 -5.85830 1011 ft 115 kts 162°
2026-03-25 17:16 37.40588 -5.85837 1012 ft 119 kts 187°
2026-03-25 17:16 37.39749 -5.85935 1003 ft 124 kts 187°
2026-03-25 17:17 37.38876 -5.86041 1004 ft 127 kts 187°
2026-03-25 17:17 37.38001 -5.86147 1003 ft 124 kts 187°
2026-03-25 17:17 37.37150 -5.86249 999 ft 122 kts 187°
2026-03-25 17:17 37.36307 -5.86355 997 ft 121 kts 187°
2026-03-25 17:18 37.35475 -5.86463 1014 ft 118 kts 187°
2026-03-25 17:18 37.34685 -5.86566 1085 ft 115 kts 187°
2026-03-25 17:18 37.33898 -5.86667 1154 ft 112 kts 187°
2026-03-25 17:18 37.33119 -5.86764 1224 ft 112 kts 187°
2026-03-25 17:19 37.32340 -5.86861 1297 ft 112 kts 187°
2026-03-25 17:19 37.31566 -5.86954 1372 ft 111 kts 187°
2026-03-25 17:19 37.30796 -5.87045 1441 ft 110 kts 187°
2026-03-25 17:19 37.30029 -5.87135 1515 ft 110 kts 186°
2026-03-25 17:20 37.29266 -5.87219 1586 ft 109 kts 187°
2026-03-25 17:20 37.28510 -5.87304 1667 ft 109 kts 187°
2026-03-25 17:20 37.27745 -5.87386 1736 ft 110 kts 187°
2026-03-25 17:20 37.26976 -5.87467 1820 ft 112 kts 186°
2026-03-25 17:21 37.26226 -5.87547 1951 ft 109 kts 187°
2026-03-25 17:21 37.25474 -5.87633 2050 ft 108 kts 187°
2026-03-25 17:21 37.24723 -5.87715 2148 ft 109 kts 186°
2026-03-25 17:21 37.23971 -5.87795 2246 ft 108 kts 186°
2026-03-25 17:22 37.23218 -5.87874 2353 ft 110 kts 187°
2026-03-25 17:22 37.22454 -5.87957 2455 ft 111 kts 187°
2026-03-25 17:22 37.21692 -5.88037 2553 ft 110 kts 186°
2026-03-25 17:22 37.20959 -5.87904 2641 ft 110 kts 147°
2026-03-25 17:23 37.20366 -5.87320 2736 ft 107 kts 144°
2026-03-25 17:23 37.19770 -5.86743 2840 ft 110 kts 143°
2026-03-25 17:23 37.19175 -5.86166 2937 ft 111 kts 144°
2026-03-25 17:23 37.18566 -5.85576 3041 ft 110 kts 144°
2026-03-25 17:24 37.17960 -5.84993 3145 ft 111 kts 144°
2026-03-25 17:24 37.17327 -5.84429 3246 ft 112 kts 144°
2026-03-25 17:24 37.16707 -5.83854 3343 ft 109 kts 145°
2026-03-25 17:24 37.16102 -5.83288 3442 ft 108 kts 145°
2026-03-25 17:25 37.15492 -5.82720 3496 ft 112 kts 146°
2026-03-25 17:25 37.14799 -5.82221 3507 ft 118 kts 153°
2026-03-25 17:25 37.14070 -5.81723 3509 ft 120 kts 153°
2026-03-25 17:25 37.13325 -5.81222 3509 ft 123 kts 153°
2026-03-25 17:26 37.12570 -5.80721 3510 ft 125 kts 154°
2026-03-25 17:26 37.11804 -5.80218 3505 ft 123 kts 154°
2026-03-25 17:26 37.11044 -5.79723 3509 ft 123 kts 154°
2026-03-25 17:27 37.09530 -5.78748 3498 ft 122 kts 154°
2026-03-25 17:27 37.08770 -5.78260 3506 ft 124 kts 154°
2026-03-25 17:27 37.08000 -5.77766 3508 ft 125 kts 154°
2026-03-25 17:27 37.07236 -5.77279 3499 ft 119 kts 154°
2026-03-25 17:28 37.06516 -5.76824 3497 ft 113 kts 155°
2026-03-25 17:28 37.05810 -5.76384 3494 ft 114 kts 155°
2026-03-25 17:28 37.05103 -5.75943 3496 ft 113 kts 155°
2026-03-25 17:28 37.04406 -5.75506 3498 ft 113 kts 155°
2026-03-25 17:29 37.03682 -5.75223 3493 ft 108 kts 176°
2026-03-25 17:29 37.02940 -5.75119 3491 ft 106 kts 174°
2026-03-25 17:29 37.02203 -5.75007 3491 ft 107 kts 175°
2026-03-25 17:29 37.01469 -5.74894 3491 ft 106 kts 174°
2026-03-25 17:30 37.00741 -5.74780 3496 ft 105 kts 174°
2026-03-25 17:30 37.00022 -5.74664 3493 ft 104 kts 174°
2026-03-25 17:30 36.99286 -5.74536 3500 ft 112 kts 173°
2026-03-25 17:30 36.98495 -5.74393 3511 ft 117 kts 174°
2026-03-25 17:31 36.97671 -5.74248 3509 ft 121 kts 173°
2026-03-25 17:31 36.96832 -5.74100 3506 ft 123 kts 174°
2026-03-25 17:31 36.95986 -5.73956 3509 ft 122 kts 174°
2026-03-25 17:31 36.95143 -5.73813 3505 ft 123 kts 174°
2026-03-25 17:32 36.94289 -5.73671 3508 ft 124 kts 174°
2026-03-25 17:32 36.93433 -5.73533 3510 ft 124 kts 174°
2026-03-25 17:32 36.92578 -5.73404 3504 ft 122 kts 174°
2026-03-25 17:32 36.91733 -5.73265 3505 ft 123 kts 173°
2026-03-25 17:33 36.90876 -5.73121 3503 ft 125 kts 174°
2026-03-25 17:33 36.90016 -5.72983 3512 ft 124 kts 174°
2026-03-25 17:33 36.89156 -5.72846 3502 ft 123 kts 174°
2026-03-25 17:33 36.88305 -5.72711 3507 ft 124 kts 174°
2026-03-25 17:34 36.87463 -5.72574 3503 ft 123 kts 174°
2026-03-25 17:34 36.86612 -5.72430 3505 ft 123 kts 174°
2026-03-25 17:34 36.85782 -5.72296 3503 ft 118 kts 174°
2026-03-25 17:34 36.84967 -5.72170 3497 ft 117 kts 174°
2026-03-25 17:35 36.84165 -5.72048 3491 ft 113 kts 174°
2026-03-25 17:35 36.83397 -5.71926 3494 ft 110 kts 174°
2026-03-25 17:35 36.82640 -5.71806 3500 ft 109 kts 174°
2026-03-25 17:35 36.81875 -5.71686 3496 ft 112 kts 174°
2026-03-25 17:36 36.81101 -5.71563 3491 ft 111 kts 174°
2026-03-25 17:36 36.80348 -5.71552 3492 ft 107 kts 194°
2026-03-25 17:36 36.79626 -5.71753 3500 ft 108 kts 194°
2026-03-25 17:36 36.78875 -5.71958 3507 ft 112 kts 194°
2026-03-25 17:37 36.78125 -5.72163 3500 ft 112 kts 194°
2026-03-25 17:37 36.77375 -5.72365 3506 ft 111 kts 193°
2026-03-25 17:37 36.76620 -5.72575 3509 ft 111 kts 194°
2026-03-25 17:37 36.75862 -5.72780 3508 ft 113 kts 193°
2026-03-25 17:38 36.75088 -5.72992 3501 ft 112 kts 195°
2026-03-25 17:38 36.74334 -5.73196 3497 ft 110 kts 194°
2026-03-25 17:38 36.73565 -5.73401 3508 ft 117 kts 194°
2026-03-25 17:38 36.72749 -5.73622 3515 ft 120 kts 194°
2026-03-25 17:39 36.72202 -5.73772 3508 ft 122 kts 194°
2026-03-25 17:39 36.71115 -5.74073 3511 ft 120 kts 194°
2026-03-25 17:39 36.70294 -5.74297 3504 ft 120 kts 194°
2026-03-25 17:39 36.69472 -5.74520 3507 ft 121 kts 194°
2026-03-25 17:40 36.68643 -5.74747 3508 ft 122 kts 193°
2026-03-25 17:40 36.68093 -5.74901 3511 ft 122 kts 194°
2026-03-25 17:40 36.67259 -5.75127 3505 ft 122 kts 194°
2026-03-25 17:40 36.66430 -5.75354 3503 ft 122 kts 194°
2026-03-25 17:41 36.65605 -5.75582 3501 ft 121 kts 196°
2026-03-25 17:41 36.64876 -5.76068 3505 ft 119 kts 214°
2026-03-25 17:41 36.64171 -5.76625 3506 ft 122 kts 213°
2026-03-25 17:41 36.63452 -5.77191 3507 ft 123 kts 214°
2026-03-25 17:42 36.62731 -5.77766 3511 ft 123 kts 214°
2026-03-25 17:42 36.62006 -5.78340 3510 ft 124 kts 213°
2026-03-25 17:42 36.61285 -5.78910 3509 ft 125 kts 214°
2026-03-25 17:42 36.60554 -5.79489 3511 ft 125 kts 214°
2026-03-25 17:43 36.59802 -5.80054 3504 ft 127 kts 207°
2026-03-25 17:43 36.58989 -5.80500 3507 ft 128 kts 205°
2026-03-25 17:43 36.58170 -5.80945 3506 ft 129 kts 205°
2026-03-25 17:43 36.57348 -5.81394 3508 ft 128 kts 206°
2026-03-25 17:44 36.56538 -5.81826 3497 ft 125 kts 204°
2026-03-25 17:44 36.55743 -5.82251 3500 ft 127 kts 205°
2026-03-25 17:44 36.54938 -5.82684 3502 ft 127 kts 204°
2026-03-25 17:44 36.54080 -5.82669 3504 ft 128 kts 156°
2026-03-25 17:45 36.53289 -5.82157 3498 ft 128 kts 154°
2026-03-25 17:45 36.52496 -5.81649 3503 ft 128 kts 154°
2026-03-25 17:45 36.51709 -5.81139 3504 ft 128 kts 154°
2026-03-25 17:45 36.50919 -5.80627 3496 ft 127 kts 154°
2026-03-25 17:46 36.50137 -5.80121 3496 ft 127 kts 154°
2026-03-25 17:46 36.49357 -5.79615 3497 ft 126 kts 154°
2026-03-25 17:46 36.48574 -5.79108 3495 ft 126 kts 154°
2026-03-25 17:46 36.47811 -5.78613 3497 ft 125 kts 153°
2026-03-25 17:47 36.47042 -5.78113 3495 ft 125 kts 154°
2026-03-25 17:47 36.46274 -5.77615 3499 ft 125 kts 154°
2026-03-25 17:47 36.45490 -5.77110 3505 ft 127 kts 154°
2026-03-25 17:47 36.44709 -5.76606 3496 ft 126 kts 154°
2026-03-25 17:48 36.43929 -5.76100 3497 ft 127 kts 154°
2026-03-25 17:48 36.43148 -5.75594 3499 ft 127 kts 154°
2026-03-25 17:48 36.42360 -5.75084 3505 ft 128 kts 154°
2026-03-25 17:48 36.41570 -5.74575 3499 ft 126 kts 154°
2026-03-25 17:49 36.40795 -5.74075 3504 ft 126 kts 154°
2026-03-25 17:49 36.40073 -5.73448 3500 ft 128 kts 139°
2026-03-25 17:49 36.38784 -5.71945 3492 ft 126 kts 137°
2026-03-25 17:50 36.38157 -5.71210 3491 ft 125 kts 138°
2026-03-25 17:50 36.37523 -5.70468 3489 ft 125 kts 138°
2026-03-25 17:50 36.36891 -5.69725 3498 ft 126 kts 137°
2026-03-25 17:50 36.36244 -5.68966 3494 ft 129 kts 138°
2026-03-25 17:51 36.35599 -5.68211 3495 ft 126 kts 137°
2026-03-25 17:51 36.34963 -5.67465 3497 ft 125 kts 138°
2026-03-25 17:51 36.34329 -5.66722 3489 ft 127 kts 138°
2026-03-25 17:51 36.33686 -5.65973 3495 ft 128 kts 138°
2026-03-25 17:52 36.33048 -5.65232 3497 ft 128 kts 138°
2026-03-25 17:52 36.32402 -5.64480 3497 ft 126 kts 137°
2026-03-25 17:52 36.31762 -5.63734 3506 ft 127 kts 137°
2026-03-25 17:52 36.31105 -5.62968 3508 ft 132 kts 138°
2026-03-25 17:53 36.30424 -5.62173 3511 ft 135 kts 138°
2026-03-25 17:53 36.29751 -5.61388 3495 ft 130 kts 138°
2026-03-25 17:53 36.29101 -5.60630 3493 ft 127 kts 138°
2026-03-25 17:53 36.28448 -5.59869 3457 ft 132 kts 138°
2026-03-25 17:54 36.27768 -5.59077 3352 ft 135 kts 138°
2026-03-25 17:54 36.27089 -5.58289 3235 ft 136 kts 137°
2026-03-25 17:54 36.26386 -5.57477 3114 ft 140 kts 138°
2026-03-25 17:54 36.25686 -5.56668 2990 ft 137 kts 138°
2026-03-25 17:55 36.25002 -5.55874 2858 ft 131 kts 139°
2026-03-25 17:55 36.24345 -5.55111 2720 ft 128 kts 138°
2026-03-25 17:55 36.23710 -5.54373 2597 ft 127 kts 137°
2026-03-25 17:55 36.23063 -5.53622 2465 ft 127 kts 138°
2026-03-25 17:56 36.22422 -5.52876 2338 ft 126 kts 138°
2026-03-25 17:56 36.21778 -5.52128 2213 ft 127 kts 138°
2026-03-25 17:56 36.21138 -5.51386 2089 ft 126 kts 138°
2026-03-25 17:56 36.20493 -5.50639 1969 ft 128 kts 138°
2026-03-25 17:57 36.19837 -5.49877 1849 ft 131 kts 137°
2026-03-25 17:57 36.19172 -5.49106 1727 ft 131 kts 138°
2026-03-25 17:57 36.18505 -5.48332 1607 ft 132 kts 137°
2026-03-25 17:57 36.17838 -5.47562 1508 ft 129 kts 139°
2026-03-25 17:58 36.17201 -5.46821 1504 ft 123 kts 138°
2026-03-25 17:58 36.16592 -5.46113 1492 ft 118 kts 138°
2026-03-25 17:58 36.16003 -5.45427 1497 ft 115 kts 138°
2026-03-25 17:58 36.15414 -5.44737 1482 ft 116 kts 138°
2026-03-25 17:59 36.14827 -5.44053 1484 ft 115 kts 137°
2026-03-25 17:59 36.14238 -5.43364 1463 ft 117 kts 137°
2026-03-25 17:59 36.13995 -5.42323 946 ft 142 kts 86°
2026-03-25 17:59 36.14328 -5.41184 629 ft 134 kts 65°
2026-03-25 18:00 36.14677 -5.40240 487 ft 114 kts 65°
2026-03-25 18:00 36.14962 -5.39373 321 ft 106 kts 71°
2026-03-25 18:00 36.15112 -5.38475 173 ft 105 kts 88°
2026-03-25 18:00 36.15104 -5.37611 178 ft 97 kts 92°
2026-03-25 18:01 36.15070 -5.36795 209 ft 95 kts 92°
2026-03-25 18:01 36.15079 -5.36020 68 ft 93 kts 86°
2026-03-25 18:01 36.15105 -5.35302 17 ft 74 kts 88°
2026-03-25 18:01 36.15109 -5.34777 15 ft 38 kts 101°
2026-03-25 18:02 36.15084 -5.34639 14 ft 0 kts 139°
2026-03-25 18:03 36.15084 -5.34638 14 ft 1 kts 139°
2026-03-25 18:03 36.15039 -5.34655 12 ft 12 kts 243°
2026-03-25 18:03 36.15000 -5.34678 11 ft 0 kts 150°